sensor_id;sensor_type;location;lat;lon;timestamp;temperature;humidity
55996;DHT22;75961;51.012;4.634;2024-02-15T00:02:23;13.60;93.70
55996;DHT22;75961;51.012;4.634;2024-02-15T00:04:48;13.80;93.50
55996;DHT22;75961;51.012;4.634;2024-02-15T00:07:14;13.70;93.60
55996;DHT22;75961;51.012;4.634;2024-02-15T00:09:40;13.80;93.30
55996;DHT22;75961;51.012;4.634;2024-02-15T00:12:07;13.70;93.40
55996;DHT22;75961;51.012;4.634;2024-02-15T00:14:33;13.70;93.50
55996;DHT22;75961;51.012;4.634;2024-02-15T00:16:58;13.80;93.30
55996;DHT22;75961;51.012;4.634;2024-02-15T00:19:25;14.00;92.90
55996;DHT22;75961;51.012;4.634;2024-02-15T00:21:50;14.00;92.90
55996;DHT22;75961;51.012;4.634;2024-02-15T00:24:16;13.90;93.10
55996;DHT22;75961;51.012;4.634;2024-02-15T00:26:42;13.90;93.00
55996;DHT22;75961;51.012;4.634;2024-02-15T00:29:08;13.70;93.40
55996;DHT22;75961;51.012;4.634;2024-02-15T00:31:34;13.60;93.70
55996;DHT22;75961;51.012;4.634;2024-02-15T00:34:01;13.70;93.50
55996;DHT22;75961;51.012;4.634;2024-02-15T00:36:28;13.60;93.50
55996;DHT22;75961;51.012;4.634;2024-02-15T00:38:55;13.80;93.20
55996;DHT22;75961;51.012;4.634;2024-02-15T00:41:21;13.80;93.30
55996;DHT22;75961;51.012;4.634;2024-02-15T00:43:47;13.90;93.20
55996;DHT22;75961;51.012;4.634;2024-02-15T00:46:13;13.70;93.30
55996;DHT22;75961;51.012;4.634;2024-02-15T00:48:39;13.90;93.10
55996;DHT22;75961;51.012;4.634;2024-02-15T00:51:06;13.60;93.30
55996;DHT22;75961;51.012;4.634;2024-02-15T00:53:32;13.80;93.20
55996;DHT22;75961;51.012;4.634;2024-02-15T00:55:58;13.80;93.20
55996;DHT22;75961;51.012;4.634;2024-02-15T00:58:24;13.90;93.00
55996;DHT22;75961;51.012;4.634;2024-02-15T01:00:52;13.80;93.00
55996;DHT22;75961;51.012;4.634;2024-02-15T01:03:19;13.90;93.00
55996;DHT22;75961;51.012;4.634;2024-02-15T01:05:45;13.70;93.20
55996;DHT22;75961;51.012;4.634;2024-02-15T01:08:11;13.80;93.00
55996;DHT22;75961;51.012;4.634;2024-02-15T01:10:37;13.90;92.70
55996;DHT22;75961;51.012;4.634;2024-02-15T01:13:03;13.90;92.90
55996;DHT22;75961;51.012;4.634;2024-02-15T01:15:28;13.90;93.00
55996;DHT22;75961;51.012;4.634;2024-02-15T01:17:55;13.80;92.90
55996;DHT22;75961;51.012;4.634;2024-02-15T01:20:20;13.90;92.70
55996;DHT22;75961;51.012;4.634;2024-02-15T01:22:46;13.80;93.00
55996;DHT22;75961;51.012;4.634;2024-02-15T01:25:12;13.70;93.10
55996;DHT22;75961;51.012;4.634;2024-02-15T01:27:40;13.80;93.00
55996;DHT22;75961;51.012;4.634;2024-02-15T01:30:06;14.00;92.50
55996;DHT22;75961;51.012;4.634;2024-02-15T01:32:33;14.00;92.50
55996;DHT22;75961;51.012;4.634;2024-02-15T01:34:59;13.90;92.60
55996;DHT22;75961;51.012;4.634;2024-02-15T01:37:25;13.80;92.70
55996;DHT22;75961;51.012;4.634;2024-02-15T01:39:51;13.70;93.00
55996;DHT22;75961;51.012;4.634;2024-02-15T01:42:18;13.60;93.20
55996;DHT22;75961;51.012;4.634;2024-02-15T01:44:44;13.60;93.10
55996;DHT22;75961;51.012;4.634;2024-02-15T01:47:11;13.60;93.30
55996;DHT22;75961;51.012;4.634;2024-02-15T01:49:37;13.70;93.10
55996;DHT22;75961;51.012;4.634;2024-02-15T01:52:04;13.50;93.30
55996;DHT22;75961;51.012;4.634;2024-02-15T01:54:34;13.50;93.00
55996;DHT22;75961;51.012;4.634;2024-02-15T01:57:02;13.50;93.20
55996;DHT22;75961;51.012;4.634;2024-02-15T01:59:28;13.40;93.50
55996;DHT22;75961;51.012;4.634;2024-02-15T02:01:55;13.30;93.50
55996;DHT22;75961;51.012;4.634;2024-02-15T02:04:21;13.30;93.80
55996;DHT22;75961;51.012;4.634;2024-02-15T02:06:48;13.50;93.20
55996;DHT22;75961;51.012;4.634;2024-02-15T02:09:14;13.50;93.10
55996;DHT22;75961;51.012;4.634;2024-02-15T02:11:45;13.60;92.80
55996;DHT22;75961;51.012;4.634;2024-02-15T02:14:11;13.40;93.20
55996;DHT22;75961;51.012;4.634;2024-02-15T02:16:37;13.30;93.50
55996;DHT22;75961;51.012;4.634;2024-02-15T02:19:04;13.40;93.50
55996;DHT22;75961;51.012;4.634;2024-02-15T02:21:35;13.50;93.00
55996;DHT22;75961;51.012;4.634;2024-02-15T02:24:03;13.60;92.80
55996;DHT22;75961;51.012;4.634;2024-02-15T02:26:35;13.60;92.50
55996;DHT22;75961;51.012;4.634;2024-02-15T02:29:01;13.50;92.90
55996;DHT22;75961;51.012;4.634;2024-02-15T02:31:33;13.60;92.70
55996;DHT22;75961;51.012;4.634;2024-02-15T02:34:00;13.60;92.70
55996;DHT22;75961;51.012;4.634;2024-02-15T02:36:26;13.60;92.60
55996;DHT22;75961;51.012;4.634;2024-02-15T02:38:52;13.50;92.60
55996;DHT22;75961;51.012;4.634;2024-02-15T02:41:18;13.60;92.60
55996;DHT22;75961;51.012;4.634;2024-02-15T02:43:48;13.80;92.30
55996;DHT22;75961;51.012;4.634;2024-02-15T02:46:14;13.90;91.80
55996;DHT22;75961;51.012;4.634;2024-02-15T02:48:41;13.80;91.90
55996;DHT22;75961;51.012;4.634;2024-02-15T02:51:07;13.70;92.20
55996;DHT22;75961;51.012;4.634;2024-02-15T02:53:33;13.90;92.10
55996;DHT22;75961;51.012;4.634;2024-02-15T02:55:59;13.90;91.90
55996;DHT22;75961;51.012;4.634;2024-02-15T02:58:25;13.90;92.20
55996;DHT22;75961;51.012;4.634;2024-02-15T03:00:51;13.80;92.60
55996;DHT22;75961;51.012;4.634;2024-02-15T03:03:17;13.70;93.00
55996;DHT22;75961;51.012;4.634;2024-02-15T03:05:44;13.80;93.10
55996;DHT22;75961;51.012;4.634;2024-02-15T03:08:11;13.60;93.10
55996;DHT22;75961;51.012;4.634;2024-02-15T03:10:38;13.60;93.50
55996;DHT22;75961;51.012;4.634;2024-02-15T03:13:05;13.70;93.40
55996;DHT22;75961;51.012;4.634;2024-02-15T03:15:31;13.50;94.00
55996;DHT22;75961;51.012;4.634;2024-02-15T03:17:58;13.40;94.20
55996;DHT22;75961;51.012;4.634;2024-02-15T03:20:24;13.30;94.40
55996;DHT22;75961;51.012;4.634;2024-02-15T03:22:54;13.10;95.00
55996;DHT22;75961;51.012;4.634;2024-02-15T03:25:20;13.10;95.10
55996;DHT22;75961;51.012;4.634;2024-02-15T03:27:49;13.20;94.70
55996;DHT22;75961;51.012;4.634;2024-02-15T03:30:18;13.20;94.50
55996;DHT22;75961;51.012;4.634;2024-02-15T03:32:45;13.20;95.20
55996;DHT22;75961;51.012;4.634;2024-02-15T03:35:15;13.10;94.80
55996;DHT22;75961;51.012;4.634;2024-02-15T03:37:41;13.30;94.40
55996;DHT22;75961;51.012;4.634;2024-02-15T03:40:08;13.40;94.10
55996;DHT22;75961;51.012;4.634;2024-02-15T03:42:34;13.30;94.30
55996;DHT22;75961;51.012;4.634;2024-02-15T03:45:07;13.20;94.60
55996;DHT22;75961;51.012;4.634;2024-02-15T03:47:34;13.40;94.40
55996;DHT22;75961;51.012;4.634;2024-02-15T03:50:07;13.30;94.60
55996;DHT22;75961;51.012;4.634;2024-02-15T03:52:39;13.20;94.60
55996;DHT22;75961;51.012;4.634;2024-02-15T03:55:05;13.20;94.80
55996;DHT22;75961;51.012;4.634;2024-02-15T03:57:33;13.30;95.00
55996;DHT22;75961;51.012;4.634;2024-02-15T03:59:59;13.30;94.60
55996;DHT22;75961;51.012;4.634;2024-02-15T04:02:25;13.20;95.00
55996;DHT22;75961;51.012;4.634;2024-02-15T04:04:56;13.20;95.00
55996;DHT22;75961;51.012;4.634;2024-02-15T04:07:22;13.20;95.00
55996;DHT22;75961;51.012;4.634;2024-02-15T04:09:51;13.20;94.80
55996;DHT22;75961;51.012;4.634;2024-02-15T04:12:16;13.30;94.70
55996;DHT22;75961;51.012;4.634;2024-02-15T04:14:43;13.20;95.00
55996;DHT22;75961;51.012;4.634;2024-02-15T04:17:13;13.10;95.20
55996;DHT22;75961;51.012;4.634;2024-02-15T04:19:48;13.10;95.20
55996;DHT22;75961;51.012;4.634;2024-02-15T04:22:16;12.90;95.80
55996;DHT22;75961;51.012;4.634;2024-02-15T04:24:43;12.90;95.70
55996;DHT22;75961;51.012;4.634;2024-02-15T04:27:09;13.10;95.00
55996;DHT22;75961;51.012;4.634;2024-02-15T04:29:37;13.10;94.90
55996;DHT22;75961;51.012;4.634;2024-02-15T04:32:15;13.20;94.80
55996;DHT22;75961;51.012;4.634;2024-02-15T04:34:41;13.00;95.30
55996;DHT22;75961;51.012;4.634;2024-02-15T04:37:07;13.00;95.30
55996;DHT22;75961;51.012;4.634;2024-02-15T04:39:36;13.10;95.10
55996;DHT22;75961;51.012;4.634;2024-02-15T04:42:03;13.20;95.10
55996;DHT22;75961;51.012;4.634;2024-02-15T04:44:30;13.20;94.70
55996;DHT22;75961;51.012;4.634;2024-02-15T04:47:00;13.30;94.80
55996;DHT22;75961;51.012;4.634;2024-02-15T04:49:26;13.30;94.90
55996;DHT22;75961;51.012;4.634;2024-02-15T04:51:54;13.30;95.10
55996;DHT22;75961;51.012;4.634;2024-02-15T04:54:20;13.20;95.30
55996;DHT22;75961;51.012;4.634;2024-02-15T04:56:47;13.30;95.00
55996;DHT22;75961;51.012;4.634;2024-02-15T04:59:13;13.10;95.70
55996;DHT22;75961;51.012;4.634;2024-02-15T05:01:41;13.00;96.20
55996;DHT22;75961;51.012;4.634;2024-02-15T05:04:13;13.20;95.70
55996;DHT22;75961;51.012;4.634;2024-02-15T05:06:39;13.10;95.80
55996;DHT22;75961;51.012;4.634;2024-02-15T05:09:06;13.00;96.10
55996;DHT22;75961;51.012;4.634;2024-02-15T05:11:42;12.90;96.20
55996;DHT22;75961;51.012;4.634;2024-02-15T05:14:12;12.90;96.20
55996;DHT22;75961;51.012;4.634;2024-02-15T05:16:38;12.80;96.40
55996;DHT22;75961;51.012;4.634;2024-02-15T05:19:09;12.80;96.60
55996;DHT22;75961;51.012;4.634;2024-02-15T05:21:37;12.70;96.60
55996;DHT22;75961;51.012;4.634;2024-02-15T05:24:04;12.80;96.70
55996;DHT22;75961;51.012;4.634;2024-02-15T05:26:30;12.80;96.50
55996;DHT22;75961;51.012;4.634;2024-02-15T05:28:56;12.90;96.50
55996;DHT22;75961;51.012;4.634;2024-02-15T05:31:22;12.80;96.60
55996;DHT22;75961;51.012;4.634;2024-02-15T05:33:51;12.80;96.50
55996;DHT22;75961;51.012;4.634;2024-02-15T05:36:18;12.70;96.40
55996;DHT22;75961;51.012;4.634;2024-02-15T05:38:49;12.80;96.20
55996;DHT22;75961;51.012;4.634;2024-02-15T05:41:15;12.80;96.10
55996;DHT22;75961;51.012;4.634;2024-02-15T05:43:42;12.70;96.60
55996;DHT22;75961;51.012;4.634;2024-02-15T05:46:08;12.70;96.10
55996;DHT22;75961;51.012;4.634;2024-02-15T05:48:38;12.90;95.80
55996;DHT22;75961;51.012;4.634;2024-02-15T05:51:05;12.80;95.70
55996;DHT22;75961;51.012;4.634;2024-02-15T05:53:31;13.00;95.40
55996;DHT22;75961;51.012;4.634;2024-02-15T05:56:07;13.10;94.80
55996;DHT22;75961;51.012;4.634;2024-02-15T05:58:33;13.10;94.60
55996;DHT22;75961;51.012;4.634;2024-02-15T06:01:00;13.10;94.80
55996;DHT22;75961;51.012;4.634;2024-02-15T06:03:30;13.00;94.80
55996;DHT22;75961;51.012;4.634;2024-02-15T06:05:58;13.00;95.10
55996;DHT22;75961;51.012;4.634;2024-02-15T06:08:25;13.10;94.80
55996;DHT22;75961;51.012;4.634;2024-02-15T06:10:52;13.00;94.60
55996;DHT22;75961;51.012;4.634;2024-02-15T06:13:18;12.90;94.90
55996;DHT22;75961;51.012;4.634;2024-02-15T06:15:44;12.80;95.10
55996;DHT22;75961;51.012;4.634;2024-02-15T06:18:12;12.90;94.90
55996;DHT22;75961;51.012;4.634;2024-02-15T06:20:40;12.80;94.90
55996;DHT22;75961;51.012;4.634;2024-02-15T06:23:06;12.90;94.70
55996;DHT22;75961;51.012;4.634;2024-02-15T06:25:33;12.90;94.50
55996;DHT22;75961;51.012;4.634;2024-02-15T06:28:00;12.90;94.20
55996;DHT22;75961;51.012;4.634;2024-02-15T06:30:28;13.00;94.10
55996;DHT22;75961;51.012;4.634;2024-02-15T06:33:13;13.00;94.10
55996;DHT22;75961;51.012;4.634;2024-02-15T06:35:57;13.10;93.60
55996;DHT22;75961;51.012;4.634;2024-02-15T06:38:41;13.10;93.40
55996;DHT22;75961;51.012;4.634;2024-02-15T06:41:25;13.00;93.80
55996;DHT22;75961;51.012;4.634;2024-02-15T06:43:51;12.80;94.00
55996;DHT22;75961;51.012;4.634;2024-02-15T06:46:17;12.80;94.10
55996;DHT22;75961;51.012;4.634;2024-02-15T06:48:44;12.90;94.00
55996;DHT22;75961;51.012;4.634;2024-02-15T06:51:13;12.90;93.90
55996;DHT22;75961;51.012;4.634;2024-02-15T06:53:40;12.90;93.50
55996;DHT22;75961;51.012;4.634;2024-02-15T06:56:09;12.90;93.70
55996;DHT22;75961;51.012;4.634;2024-02-15T06:58:36;12.80;93.60
55996;DHT22;75961;51.012;4.634;2024-02-15T07:01:02;13.00;93.40
55996;DHT22;75961;51.012;4.634;2024-02-15T07:03:28;12.90;93.50
55996;DHT22;75961;51.012;4.634;2024-02-15T07:06:01;12.80;93.40
55996;DHT22;75961;51.012;4.634;2024-02-15T07:08:28;12.90;93.40
55996;DHT22;75961;51.012;4.634;2024-02-15T07:10:55;12.80;93.20
55996;DHT22;75961;51.012;4.634;2024-02-15T07:13:20;12.90;93.10
55996;DHT22;75961;51.012;4.634;2024-02-15T07:15:46;12.90;92.70
55996;DHT22;75961;51.012;4.634;2024-02-15T07:18:12;12.80;92.90
55996;DHT22;75961;51.012;4.634;2024-02-15T07:20:41;12.90;92.70
55996;DHT22;75961;51.012;4.634;2024-02-15T07:23:07;12.90;92.80
55996;DHT22;75961;51.012;4.634;2024-02-15T07:25:33;12.90;92.70
55996;DHT22;75961;51.012;4.634;2024-02-15T07:27:59;12.80;92.70
55996;DHT22;75961;51.012;4.634;2024-02-15T07:30:24;12.70;93.30
55996;DHT22;75961;51.012;4.634;2024-02-15T07:32:50;12.80;93.10
55996;DHT22;75961;51.012;4.634;2024-02-15T07:35:16;12.90;93.00
55996;DHT22;75961;51.012;4.634;2024-02-15T07:37:54;13.00;92.60
55996;DHT22;75961;51.012;4.634;2024-02-15T07:40:22;12.90;93.10
55996;DHT22;75961;51.012;4.634;2024-02-15T07:42:51;12.90;92.90
55996;DHT22;75961;51.012;4.634;2024-02-15T07:45:17;13.20;92.40
55996;DHT22;75961;51.012;4.634;2024-02-15T07:47:43;13.10;92.60
55996;DHT22;75961;51.012;4.634;2024-02-15T07:50:10;13.10;92.70
55996;DHT22;75961;51.012;4.634;2024-02-15T07:52:36;13.20;92.40
55996;DHT22;75961;51.012;4.634;2024-02-15T07:55:02;13.40;91.80
55996;DHT22;75961;51.012;4.634;2024-02-15T07:57:30;13.60;91.60
55996;DHT22;75961;51.012;4.634;2024-02-15T07:59:56;13.40;91.60
55996;DHT22;75961;51.012;4.634;2024-02-15T08:02:23;13.40;91.80
55996;DHT22;75961;51.012;4.634;2024-02-15T08:04:50;13.30;91.70
55996;DHT22;75961;51.012;4.634;2024-02-15T08:07:17;13.30;92.00
55996;DHT22;75961;51.012;4.634;2024-02-15T08:09:42;13.40;91.50
55996;DHT22;75961;51.012;4.634;2024-02-15T08:12:09;13.40;91.70
55996;DHT22;75961;51.012;4.634;2024-02-15T08:14:34;13.60;91.40
55996;DHT22;75961;51.012;4.634;2024-02-15T08:17:00;13.70;91.10
55996;DHT22;75961;51.012;4.634;2024-02-15T08:19:28;13.70;90.80
55996;DHT22;75961;51.012;4.634;2024-02-15T08:21:54;13.70;91.20
55996;DHT22;75961;51.012;4.634;2024-02-15T08:24:20;13.70;90.90
55996;DHT22;75961;51.012;4.634;2024-02-15T08:26:46;13.60;91.50
55996;DHT22;75961;51.012;4.634;2024-02-15T08:29:13;13.70;90.80
55996;DHT22;75961;51.012;4.634;2024-02-15T08:31:40;13.90;90.20
55996;DHT22;75961;51.012;4.634;2024-02-15T08:34:06;13.90;90.40
55996;DHT22;75961;51.012;4.634;2024-02-15T08:36:35;14.10;90.10
55996;DHT22;75961;51.012;4.634;2024-02-15T08:39:01;14.00;90.20
55996;DHT22;75961;51.012;4.634;2024-02-15T08:41:29;14.10;90.00
55996;DHT22;75961;51.012;4.634;2024-02-15T08:43:55;14.10;90.20
55996;DHT22;75961;51.012;4.634;2024-02-15T08:46:23;14.40;88.20
55996;DHT22;75961;51.012;4.634;2024-02-15T08:48:51;14.60;87.80
55996;DHT22;75961;51.012;4.634;2024-02-15T08:51:17;14.70;86.50
55996;DHT22;75961;51.012;4.634;2024-02-15T08:53:43;14.80;86.40
55996;DHT22;75961;51.012;4.634;2024-02-15T08:56:09;14.70;87.90
55996;DHT22;75961;51.012;4.634;2024-02-15T08:58:35;14.70;88.00
55996;DHT22;75961;51.012;4.634;2024-02-15T09:01:01;15.00;86.90
55996;DHT22;75961;51.012;4.634;2024-02-15T09:03:28;15.30;85.50
55996;DHT22;75961;51.012;4.634;2024-02-15T09:05:54;15.40;84.40
55996;DHT22;75961;51.012;4.634;2024-02-15T09:08:20;15.50;84.90
55996;DHT22;75961;51.012;4.634;2024-02-15T09:10:47;15.60;83.60
55996;DHT22;75961;51.012;4.634;2024-02-15T09:13:12;15.70;83.30
55996;DHT22;75961;51.012;4.634;2024-02-15T09:15:39;15.90;83.00
55996;DHT22;75961;51.012;4.634;2024-02-15T09:18:06;16.00;82.50
55996;DHT22;75961;51.012;4.634;2024-02-15T09:20:35;16.10;82.50
55996;DHT22;75961;51.012;4.634;2024-02-15T09:23:03;15.90;82.50
55996;DHT22;75961;51.012;4.634;2024-02-15T09:25:37;15.90;83.20
55996;DHT22;75961;51.012;4.634;2024-02-15T09:28:03;16.00;80.50
55996;DHT22;75961;51.012;4.634;2024-02-15T09:30:29;15.90;82.10
55996;DHT22;75961;51.012;4.634;2024-02-15T09:32:57;16.00;81.40
55996;DHT22;75961;51.012;4.634;2024-02-15T09:35:23;16.10;80.70
55996;DHT22;75961;51.012;4.634;2024-02-15T09:37:49;16.30;79.50
55996;DHT22;75961;51.012;4.634;2024-02-15T09:40:15;16.10;81.00
55996;DHT22;75961;51.012;4.634;2024-02-15T09:42:43;15.90;80.70
55996;DHT22;75961;51.012;4.634;2024-02-15T09:45:11;16.10;80.70
55996;DHT22;75961;51.012;4.634;2024-02-15T09:47:41;16.00;81.40
55996;DHT22;75961;51.012;4.634;2024-02-15T09:50:09;16.10;80.80
55996;DHT22;75961;51.012;4.634;2024-02-15T09:52:39;16.20;80.40
55996;DHT22;75961;51.012;4.634;2024-02-15T09:55:07;16.40;78.70
55996;DHT22;75961;51.012;4.634;2024-02-15T09:57:39;16.50;78.00
55996;DHT22;75961;51.012;4.634;2024-02-15T10:00:07;16.30;80.10
55996;DHT22;75961;51.012;4.634;2024-02-15T10:02:35;16.40;78.40
55996;DHT22;75961;51.012;4.634;2024-02-15T10:05:02;16.60;77.90
55996;DHT22;75961;51.012;4.634;2024-02-15T10:07:28;16.80;76.30
55996;DHT22;75961;51.012;4.634;2024-02-15T10:09:54;17.00;75.60
55996;DHT22;75961;51.012;4.634;2024-02-15T10:12:20;16.80;77.30
55996;DHT22;75961;51.012;4.634;2024-02-15T10:14:52;16.90;77.10
55996;DHT22;75961;51.012;4.634;2024-02-15T10:17:19;16.90;76.50
55996;DHT22;75961;51.012;4.634;2024-02-15T10:19:48;16.80;76.70
55996;DHT22;75961;51.012;4.634;2024-02-15T10:22:27;17.00;75.90
55996;DHT22;75961;51.012;4.634;2024-02-15T10:25:10;16.70;77.40
55996;DHT22;75961;51.012;4.634;2024-02-15T10:27:36;16.70;77.90
55996;DHT22;75961;51.012;4.634;2024-02-15T10:30:19;16.60;76.10
55996;DHT22;75961;51.012;4.634;2024-02-15T10:32:46;16.80;76.60
55996;DHT22;75961;51.012;4.634;2024-02-15T10:35:22;16.80;76.30
55996;DHT22;75961;51.012;4.634;2024-02-15T10:37:49;16.90;75.80
55996;DHT22;75961;51.012;4.634;2024-02-15T10:40:19;16.90;75.70
55996;DHT22;75961;51.012;4.634;2024-02-15T10:42:47;16.80;76.50
55996;DHT22;75961;51.012;4.634;2024-02-15T10:45:15;16.90;76.80
55996;DHT22;75961;51.012;4.634;2024-02-15T10:47:44;16.90;75.60
55996;DHT22;75961;51.012;4.634;2024-02-15T10:50:11;16.90;76.10
55996;DHT22;75961;51.012;4.634;2024-02-15T10:52:44;16.90;75.40
55996;DHT22;75961;51.012;4.634;2024-02-15T10:55:21;17.00;75.60
55996;DHT22;75961;51.012;4.634;2024-02-15T10:57:50;17.10;75.60
55996;DHT22;75961;51.012;4.634;2024-02-15T11:00:19;17.30;75.20
55996;DHT22;75961;51.012;4.634;2024-02-15T11:03:01;17.20;75.60
55996;DHT22;75961;51.012;4.634;2024-02-15T11:05:34;17.50;73.50
55996;DHT22;75961;51.012;4.634;2024-02-15T11:08:04;17.60;72.80
55996;DHT22;75961;51.012;4.634;2024-02-15T11:10:32;17.80;71.30
55996;DHT22;75961;51.012;4.634;2024-02-15T11:13:02;17.80;72.90
55996;DHT22;75961;51.012;4.634;2024-02-15T11:15:44;17.90;70.40
55996;DHT22;75961;51.012;4.634;2024-02-15T11:18:45;17.90;70.60
55996;DHT22;75961;51.012;4.634;2024-02-15T11:21:52;17.90;69.00
55996;DHT22;75961;51.012;4.634;2024-02-15T11:24:28;17.70;70.20
55996;DHT22;75961;51.012;4.634;2024-02-15T11:26:58;17.50;71.10
55996;DHT22;75961;51.012;4.634;2024-02-15T11:29:49;17.40;70.60
55996;DHT22;75961;51.012;4.634;2024-02-15T11:32:38;17.40;70.60
55996;DHT22;75961;51.012;4.634;2024-02-15T11:35:20;17.30;70.40
55996;DHT22;75961;51.012;4.634;2024-02-15T11:43:09;17.60;70.90
55996;DHT22;75961;51.012;4.634;2024-02-15T11:45:36;17.70;70.50
55996;DHT22;75961;51.012;4.634;2024-02-15T11:48:12;17.60;70.70
55996;DHT22;75961;51.012;4.634;2024-02-15T11:50:38;17.70;69.20
55996;DHT22;75961;51.012;4.634;2024-02-15T11:53:08;17.90;69.40
55996;DHT22;75961;51.012;4.634;2024-02-15T11:55:38;18.00;68.70
55996;DHT22;75961;51.012;4.634;2024-02-15T11:58:05;17.90;68.40
55996;DHT22;75961;51.012;4.634;2024-02-15T12:00:42;17.80;68.30
55996;DHT22;75961;51.012;4.634;2024-02-15T12:03:27;17.80;68.70
55996;DHT22;75961;51.012;4.634;2024-02-15T12:06:11;17.90;67.90
55996;DHT22;75961;51.012;4.634;2024-02-15T12:08:56;17.50;69.60
55996;DHT22;75961;51.012;4.634;2024-02-15T12:11:40;17.70;68.30
55996;DHT22;75961;51.012;4.634;2024-02-15T12:14:25;17.90;68.20
55996;DHT22;75961;51.012;4.634;2024-02-15T12:17:11;18.10;66.70
55996;DHT22;75961;51.012;4.634;2024-02-15T12:19:57;17.80;68.20
55996;DHT22;75961;51.012;4.634;2024-02-15T12:22:35;17.80;66.40
55996;DHT22;75961;51.012;4.634;2024-02-15T12:25:06;17.80;67.00
55996;DHT22;75961;51.012;4.634;2024-02-15T12:27:42;17.90;66.60
55996;DHT22;75961;51.012;4.634;2024-02-15T12:30:18;18.10;65.10
55996;DHT22;75961;51.012;4.634;2024-02-15T12:32:48;17.90;66.60
55996;DHT22;75961;51.012;4.634;2024-02-15T12:35:16;17.90;66.90
55996;DHT22;75961;51.012;4.634;2024-02-15T12:37:48;18.00;66.00
55996;DHT22;75961;51.012;4.634;2024-02-15T12:40:19;18.10;67.10
55996;DHT22;75961;51.012;4.634;2024-02-15T12:42:47;18.00;66.60
55996;DHT22;75961;51.012;4.634;2024-02-15T12:45:20;18.10;65.90
55996;DHT22;75961;51.012;4.634;2024-02-15T12:47:53;18.00;66.90
55996;DHT22;75961;51.012;4.634;2024-02-15T12:50:21;17.80;67.20
55996;DHT22;75961;51.012;4.634;2024-02-15T12:52:48;17.70;68.30
55996;DHT22;75961;51.012;4.634;2024-02-15T12:55:22;17.80;66.80
55996;DHT22;75961;51.012;4.634;2024-02-15T12:57:52;17.80;67.00
55996;DHT22;75961;51.012;4.634;2024-02-15T13:00:22;17.80;67.50
55996;DHT22;75961;51.012;4.634;2024-02-15T13:02:50;17.80;69.20
55996;DHT22;75961;51.012;4.634;2024-02-15T13:05:17;18.10;67.00
55996;DHT22;75961;51.012;4.634;2024-02-15T13:07:48;18.30;65.80
55996;DHT22;75961;51.012;4.634;2024-02-15T13:10:14;18.50;64.50
55996;DHT22;75961;51.012;4.634;2024-02-15T13:12:44;18.60;62.80
55996;DHT22;75961;51.012;4.634;2024-02-15T13:15:12;18.50;63.30
55996;DHT22;75961;51.012;4.634;2024-02-15T13:17:43;18.60;64.00
55996;DHT22;75961;51.012;4.634;2024-02-15T13:20:10;19.00;61.60
55996;DHT22;75961;51.012;4.634;2024-02-15T13:22:40;18.80;61.30
55996;DHT22;75961;51.012;4.634;2024-02-15T13:25:07;18.80;61.60
55996;DHT22;75961;51.012;4.634;2024-02-15T13:27:36;18.70;61.00
55996;DHT22;75961;51.012;4.634;2024-02-15T13:30:06;18.80;63.30
55996;DHT22;75961;51.012;4.634;2024-02-15T13:32:39;18.70;61.20
55996;DHT22;75961;51.012;4.634;2024-02-15T13:35:10;18.90;60.60
55996;DHT22;75961;51.012;4.634;2024-02-15T13:37:48;18.70;61.20
55996;DHT22;75961;51.012;4.634;2024-02-15T13:40:15;18.60;60.40
55996;DHT22;75961;51.012;4.634;2024-02-15T13:42:44;18.60;60.70
55996;DHT22;75961;51.012;4.634;2024-02-15T13:45:20;18.90;59.30
55996;DHT22;75961;51.012;4.634;2024-02-15T13:47:48;18.90;58.70
55996;DHT22;75961;51.012;4.634;2024-02-15T13:50:15;18.60;58.50
55996;DHT22;75961;51.012;4.634;2024-02-15T13:52:41;18.40;58.80
55996;DHT22;75961;51.012;4.634;2024-02-15T13:55:16;18.20;60.80
55996;DHT22;75961;51.012;4.634;2024-02-15T13:57:44;18.30;59.50
55996;DHT22;75961;51.012;4.634;2024-02-15T14:00:14;18.40;60.20
55996;DHT22;75961;51.012;4.634;2024-02-15T14:02:57;18.70;59.80
55996;DHT22;75961;51.012;4.634;2024-02-15T14:05:25;18.80;59.80
55996;DHT22;75961;51.012;4.634;2024-02-15T14:07:59;19.20;59.40
55996;DHT22;75961;51.012;4.634;2024-02-15T14:10:27;19.30;58.70
55996;DHT22;75961;51.012;4.634;2024-02-15T14:12:54;19.20;58.40
55996;DHT22;75961;51.012;4.634;2024-02-15T14:15:30;19.00;58.90
55996;DHT22;75961;51.012;4.634;2024-02-15T14:17:55;19.10;58.50
55996;DHT22;75961;51.012;4.634;2024-02-15T14:20:22;19.00;58.20
55996;DHT22;75961;51.012;4.634;2024-02-15T14:22:49;19.10;58.50
55996;DHT22;75961;51.012;4.634;2024-02-15T14:25:16;18.90;59.10
55996;DHT22;75961;51.012;4.634;2024-02-15T14:27:42;18.90;59.60
55996;DHT22;75961;51.012;4.634;2024-02-15T14:30:10;18.90;59.40
55996;DHT22;75961;51.012;4.634;2024-02-15T14:32:55;18.70;60.10
55996;DHT22;75961;51.012;4.634;2024-02-15T14:35:35;18.70;59.30
55996;DHT22;75961;51.012;4.634;2024-02-15T14:38:05;18.50;60.20
55996;DHT22;75961;51.012;4.634;2024-02-15T14:40:33;18.40;60.40
55996;DHT22;75961;51.012;4.634;2024-02-15T14:42:59;18.40;62.00
55996;DHT22;75961;51.012;4.634;2024-02-15T14:45:25;18.40;62.10
55996;DHT22;75961;51.012;4.634;2024-02-15T14:47:51;18.40;62.40
55996;DHT22;75961;51.012;4.634;2024-02-15T14:50:17;18.40;61.90
55996;DHT22;75961;51.012;4.634;2024-02-15T14:52:43;18.50;61.10
55996;DHT22;75961;51.012;4.634;2024-02-15T14:55:09;18.20;63.00
55996;DHT22;75961;51.012;4.634;2024-02-15T14:57:36;18.30;63.60
55996;DHT22;75961;51.012;4.634;2024-02-15T15:00:07;18.40;63.20
55996;DHT22;75961;51.012;4.634;2024-02-15T15:02:40;18.40;61.70
55996;DHT22;75961;51.012;4.634;2024-02-15T15:05:09;18.30;61.70
55996;DHT22;75961;51.012;4.634;2024-02-15T15:07:53;18.20;61.60
55996;DHT22;75961;51.012;4.634;2024-02-15T15:10:37;18.10;62.20
55996;DHT22;75961;51.012;4.634;2024-02-15T15:13:21;18.00;62.90
55996;DHT22;75961;51.012;4.634;2024-02-15T15:15:49;17.90;62.90
55996;DHT22;75961;51.012;4.634;2024-02-15T15:18:15;17.70;64.60
55996;DHT22;75961;51.012;4.634;2024-02-15T15:20:41;17.50;64.70
55996;DHT22;75961;51.012;4.634;2024-02-15T15:23:06;17.70;65.60
55996;DHT22;75961;51.012;4.634;2024-02-15T15:25:33;17.60;66.40
55996;DHT22;75961;51.012;4.634;2024-02-15T15:27:59;17.80;65.60
55996;DHT22;75961;51.012;4.634;2024-02-15T15:30:25;17.90;64.70
55996;DHT22;75961;51.012;4.634;2024-02-15T15:32:51;17.90;64.70
55996;DHT22;75961;51.012;4.634;2024-02-15T15:35:17;18.10;65.30
55996;DHT22;75961;51.012;4.634;2024-02-15T15:37:47;18.20;64.40
55996;DHT22;75961;51.012;4.634;2024-02-15T15:40:16;18.00;64.60
55996;DHT22;75961;51.012;4.634;2024-02-15T15:42:42;18.10;64.60
55996;DHT22;75961;51.012;4.634;2024-02-15T15:45:09;18.10;65.50
55996;DHT22;75961;51.012;4.634;2024-02-15T15:47:35;17.90;66.80